Time;durP1;ratioP1;P1;durP2;ratioP2;P2;SDS_P1;SDS_P2;PMS_P1;PMS_P2;Temp;Humidity;BMP_temperature;BMP_pressure;BME280_temperature;BME280_humidity;BME280_pressure;Samples;Min_cycle;Max_cycle;Signal;HPM_P1;HPM_P2
2023/07/05 00:10:11;;;;;;;9.10;5.13;;;25.20;96.70;;;;;;5022249;28;20056;-69
2023/07/05 00:12:39;;;;;;;8.25;4.85;;;25.20;96.70;;;;;;5003662;28;20045;-69
2023/07/05 00:15:08;;;;;;;7.88;4.85;;;25.20;96.70;;;;;;4996601;28;20046;-68
2023/07/05 00:17:36;;;;;;;7.85;4.70;;;25.30;96.70;;;;;;5021972;28;20041;-69
2023/07/05 02:43:43;;;;;;;6.75;4.63;;;24.70;96.70;;;;;;4993071;28;20925;-69
2023/07/05 02:46:13;;;;;;;9.15;5.22;;;24.60;96.70;;;;;;4984980;28;20530;-69
2023/07/05 02:48:41;;;;;;;9.85;5.68;;;24.70;96.70;;;;;;5017378;28;20050;-69
2023/07/05 02:51:10;;;;;;;8.15;5.00;;;24.60;96.70;;;;;;4999771;28;20045;-69
2023/07/05 02:53:38;;;;;;;6.55;4.80;;;24.70;96.70;;;;;;5004538;28;20411;-69
2023/07/05 02:56:07;;;;;;;8.13;5.38;;;24.60;96.70;;;;;;4988510;28;20050;-69
2023/07/05 02:58:35;;;;;;;7.38;5.18;;;24.50;96.70;;;;;;4984277;28;20403;-69
2023/07/05 03:01:05;;;;;;;8.95;4.88;;;24.50;96.70;;;;;;5004676;28;20124;-69
2023/07/05 03:03:33;;;;;;;11.10;5.07;;;24.40;96.70;;;;;;5000804;28;20148;-69
2023/07/05 03:06:02;;;;;;;9.70;5.53;;;24.40;96.70;;;;;;4996582;28;20046;-69
2023/07/05 03:08:30;;;;;;;10.13;5.20;;;24.40;96.70;;;;;;4997959;28;20125;-69
2023/07/05 03:10:59;;;;;;;8.38;4.93;;;24.50;96.70;;;;;;4999351;28;20513;-69
2023/07/05 03:13:30;;;;;;;7.50;4.75;;;24.50;96.70;;;;;;4998087;28;20054;-69
2023/07/05 03:15:59;;;;;;;8.40;4.90;;;24.40;96.70;;;;;;5002401;28;20046;-69
2023/07/05 03:18:29;;;;;;;8.48;4.97;;;24.30;96.70;;;;;;4987084;28;20062;-69
2023/07/05 03:20:57;;;;;;;7.88;5.53;;;24.30;96.70;;;;;;5002858;28;20058;-69
2023/07/05 03:23:25;;;;;;;12.93;5.70;;;24.30;96.70;;;;;;4995298;28;20491;-69
2023/07/05 03:25:55;;;;;;;7.70;5.50;;;24.30;96.70;;;;;;5004471;28;20049;-69
2023/07/05 03:28:25;;;;;;;10.98;5.57;;;24.30;96.70;;;;;;4996099;28;20455;-69
2023/07/05 03:30:57;;;;;;;7.00;5.28;;;24.30;96.70;;;;;;5000210;28;20042;-69
2023/07/05 03:33:27;;;;;;;8.30;4.95;;;24.30;96.70;;;;;;4999681;28;20140;-69
2023/07/05 04:05:28;;;;;;;6.65;5.13;;;24.00;96.70;;;;;;4995416;28;20215;-69
2023/07/05 04:07:56;;;;;;;9.15;5.18;;;24.00;96.70;;;;;;5004144;28;20045;-69
2023/07/05 04:10:24;;;;;;;8.18;5.32;;;24.00;96.70;;;;;;5014978;28;20046;-69
2023/07/05 04:12:53;;;;;;;9.45;5.32;;;24.00;96.70;;;;;;4999628;28;20050;-69
2023/07/05 04:15:21;;;;;;;9.40;5.72;;;24.10;96.70;;;;;;5016512;28;21499;-69
2023/07/05 04:17:49;;;;;;;11.85;6.25;;;24.10;96.70;;;;;;5017374;28;20048;-68
2023/07/05 04:20:17;;;;;;;10.85;6.60;;;24.00;96.70;;;;;;5008639;28;20717;-68
2023/07/05 04:22:47;;;;;;;10.15;6.28;;;24.00;96.70;;;;;;4997182;28;20038;-69
2023/07/05 04:25:15;;;;;;;10.77;6.90;;;24.00;96.70;;;;;;5013358;28;20125;-70
2023/07/05 04:27:42;;;;;;;12.77;7.57;;;24.00;96.70;;;;;;4984403;28;20733;-70
2023/07/05 04:30:14;;;;;;;12.82;7.38;;;24.00;96.70;;;;;;4998374;28;20049;-70
2023/07/05 04:32:43;;;;;;;13.68;7.00;;;24.00;96.70;;;;;;5018832;28;20881;-70
2023/07/05 04:35:11;;;;;;;9.43;6.18;;;24.10;96.70;;;;;;4997514;28;20069;-69
2023/07/05 04:37:39;;;;;;;11.32;6.32;;;24.10;96.70;;;;;;5000603;28;20042;-69
2023/07/05 04:40:12;;;;;;;11.20;6.53;;;24.10;96.70;;;;;;4988921;28;20116;-69
2023/07/05 04:42:40;;;;;;;11.32;6.30;;;24.20;96.70;;;;;;5020176;28;20095;-69
2023/07/05 04:45:13;;;;;;;7.50;6.05;;;24.20;96.70;;;;;;5008681;28;20042;-69
2023/07/05 04:47:42;;;;;;;10.52;6.05;;;24.10;96.70;;;;;;5012843;28;20120;-69
2023/07/05 04:50:10;;;;;;;8.30;5.50;;;24.10;96.70;;;;;;4994758;28;20046;-69
2023/07/05 04:52:39;;;;;;;9.35;5.40;;;24.20;96.70;;;;;;5020418;28;20054;-69
2023/07/05 04:55:07;;;;;;;8.75;5.10;;;24.20;96.70;;;;;;5023365;28;20037;-69
2023/07/05 04:57:36;;;;;;;10.10;5.93;;;24.30;96.70;;;;;;5003297;28;20509;-69
2023/07/05 05:00:06;;;;;;;9.80;5.57;;;24.40;96.70;;;;;;5010910;28;20492;-69
2023/07/05 05:02:34;;;;;;;7.82;5.78;;;24.40;96.70;;;;;;5023298;28;20095;-69
2023/07/05 05:05:04;;;;;;;9.27;5.20;;;24.40;96.70;;;;;;5024613;28;20092;-69
2023/07/05 05:07:33;;;;;;;11.10;5.78;;;24.50;96.70;;;;;;4998208;28;20053;-69
2023/07/05 05:10:01;;;;;;;12.48;6.20;;;24.50;96.70;;;;;;5005239;28;20034;-69
2023/07/05 05:12:29;;;;;;;11.68;6.43;;;24.60;96.70;;;;;;5000548;28;20119;-69
2023/07/05 05:14:59;;;;;;;8.82;5.20;;;24.70;96.70;;;;;;4994211;28;20769;-69
2023/07/05 05:17:29;;;;;;;7.68;5.72;;;24.60;96.70;;;;;;5006938;28;20050;-69
2023/07/05 05:19:57;;;;;;;10.02;6.15;;;24.70;96.70;;;;;;5022012;28;20141;-69
2023/07/05 05:22:25;;;;;;;10.25;6.25;;;24.60;96.70;;;;;;5021318;28;20077;-69
2023/07/05 05:24:53;;;;;;;10.43;6.78;;;24.60;96.70;;;;;;5015879;28;20049;-69
2023/07/05 05:27:21;;;;;;;12.18;6.60;;;24.50;96.70;;;;;;5005792;28;20367;-69
2023/07/05 05:29:50;;;;;;;10.63;6.40;;;24.50;96.70;;;;;;5021489;28;20458;-69
2023/07/05 05:32:28;;;;;;;11.55;6.35;;;24.40;96.70;;;;;;4986484;28;20038;-69
2023/07/05 05:34:56;;;;;;;13.23;6.53;;;24.30;96.70;;;;;;5014935;28;20046;-71
2023/07/05 05:37:24;;;;;;;12.00;6.55;;;24.30;96.70;;;;;;5004947;28;20038;-70
2023/07/05 05:39:52;;;;;;;13.30;6.97;;;24.40;96.70;;;;;;5023510;28;20107;-70
2023/07/05 05:42:20;;;;;;;11.23;7.45;;;24.60;96.70;;;;;;5007049;28;20557;-71
2023/07/05 05:45:00;;;;;;;10.73;6.43;;;24.70;96.70;;;;;;4984773;28;20109;-73
2023/07/05 05:47:30;;;;;;;12.20;7.32;;;24.70;96.70;;;;;;4978367;28;20485;-70
2023/07/05 05:49:58;;;;;;;12.65;7.63;;;24.80;96.70;;;;;;5017987;28;20124;-70
2023/07/05 05:52:26;;;;;;;12.02;6.90;;;24.90;96.70;;;;;;4997634;28;20042;-69
2023/07/05 05:54:54;;;;;;;13.52;6.93;;;24.90;96.70;;;;;;5002704;28;20480;-70
2023/07/05 05:57:21;;;;;;;11.50;6.63;;;24.90;96.70;;;;;;4999461;28;20485;-71
2023/07/05 05:59:57;;;;;;;13.77;6.63;;;25.00;96.70;;;;;;5023595;28;20057;-71
2023/07/05 06:02:25;;;;;;;11.32;7.03;;;25.20;96.70;;;;;;5007054;28;20042;-71
2023/07/05 06:04:56;;;;;;;10.38;6.32;;;25.30;96.70;;;;;;4955194;28;1577776;-73
2023/07/05 06:07:27;;;;;;;10.05;5.68;;;25.20;96.70;;;;;;5016718;28;20582;-74
2023/07/05 06:09:56;;;;;;;7.85;5.18;;;25.40;96.70;;;;;;5022514;28;20111;-73
2023/07/05 06:12:25;;;;;;;7.57;4.75;;;25.40;96.70;;;;;;5007418;28;20459;-74
2023/07/05 06:14:54;;;;;;;9.07;5.65;;;25.60;96.70;;;;;;5024931;28;20064;-73
2023/07/05 06:17:43;;;;;;;8.35;5.10;;;25.60;96.70;;;;;;5014812;28;20041;-70
2023/07/05 06:20:16;;;;;;;8.48;4.80;;;25.60;96.70;;;;;;4975928;28;20050;-70
2023/07/05 06:22:44;;;;;;;9.68;5.13;;;25.60;96.70;;;;;;5003052;28;20808;-70
2023/07/05 06:25:14;;;;;;;9.73;5.40;;;25.70;96.70;;;;;;5017029;28;20037;-72
2023/07/05 06:27:42;;;;;;;8.63;5.20;;;25.70;96.70;;;;;;5021714;28;20057;-73
2023/07/05 06:30:11;;;;;;;7.82;5.10;;;25.70;96.70;;;;;;5018561;28;20049;-70
2023/07/05 06:32:39;;;;;;;8.13;5.22;;;25.70;96.70;;;;;;5022486;28;20046;-70
2023/07/05 06:35:08;;;;;;;10.85;6.05;;;25.80;96.70;;;;;;5023462;28;20088;-70
2023/07/05 06:37:37;;;;;;;7.53;5.20;;;25.90;96.70;;;;;;5024493;28;20046;-70
2023/07/05 06:40:07;;;;;;;10.88;5.95;;;26.00;96.70;;;;;;5024273;28;20055;-70
2023/07/05 06:42:35;;;;;;;8.15;4.90;;;26.00;96.70;;;;;;4990206;28;20427;-70
2023/07/05 06:45:09;;;;;;;9.90;5.20;;;26.10;96.70;;;;;;5006307;28;20083;-70
2023/07/05 06:47:39;;;;;;;8.68;4.63;;;26.10;96.70;;;;;;5007204;28;20049;-73
2023/07/05 06:50:09;;;;;;;7.68;4.70;;;26.00;96.70;;;;;;5021899;28;20046;-73
2023/07/05 06:52:46;;;;;;;8.82;5.20;;;26.10;96.70;;;;;;5018429;28;20045;-73
2023/07/05 06:55:15;;;;;;;9.52;5.55;;;26.10;96.70;;;;;;5023649;28;20129;-73
2023/07/05 06:57:42;;;;;;;10.68;5.25;;;26.20;96.70;;;;;;5023310;28;20068;-73
2023/07/05 07:00:12;;;;;;;9.30;5.00;;;26.20;96.70;;;;;;5019695;28;20572;-72
2023/07/05 07:02:40;;;;;;;8.90;5.70;;;26.20;96.70;;;;;;5005897;28;20052;-72
2023/07/05 07:05:08;;;;;;;10.20;4.75;;;26.30;96.70;;;;;;5023210;28;20053;-73
2023/07/05 07:07:36;;;;;;;10.30;5.13;;;26.30;96.70;;;;;;5023910;28;20103;-72
2023/07/05 07:10:07;;;;;;;8.75;4.72;;;26.30;96.70;;;;;;5012490;28;20754;-72
2023/07/05 07:12:35;;;;;;;10.70;5.40;;;26.40;96.70;;;;;;5023622;28;20053;-73
2023/07/05 07:15:04;;;;;;;8.07;4.63;;;26.40;96.70;;;;;;4990483;28;20045;-72
2023/07/05 07:17:32;;;;;;;7.95;4.40;;;26.40;96.70;;;;;;5005662;28;20046;-73
2023/07/05 07:20:00;;;;;;;7.00;4.72;;;26.50;96.70;;;;;;5003236;28;20402;-71
2023/07/05 07:22:28;;;;;;;8.40;4.40;;;26.50;96.70;;;;;;5001180;28;20056;-70
2023/07/05 07:24:56;;;;;;;8.43;4.60;;;26.60;96.70;;;;;;5015478;28;20045;-71
2023/07/05 07:27:26;;;;;;;7.93;4.72;;;26.60;96.70;;;;;;5004305;28;20056;-72
2023/07/05 07:29:55;;;;;;;10.57;4.80;;;26.60;96.70;;;;;;5002805;28;20037;-73
2023/07/05 07:32:24;;;;;;;7.57;4.20;;;26.70;96.70;;;;;;5002989;28;20045;-73
2023/07/05 07:34:52;;;;;;;8.10;4.78;;;26.70;96.70;;;;;;5005210;28;20086;-73
2023/07/05 07:37:21;;;;;;;7.10;4.30;;;26.60;96.70;;;;;;5005002;28;20052;-73
2023/07/05 07:39:49;;;;;;;9.02;4.32;;;26.60;96.70;;;;;;4996754;28;20527;-70
2023/07/05 07:42:17;;;;;;;8.50;4.50;;;26.50;96.70;;;;;;5005221;28;20077;-70
2023/07/05 07:44:47;;;;;;;8.02;4.47;;;26.60;96.70;;;;;;5023613;28;20562;-71
2023/07/05 07:47:15;;;;;;;12.73;4.72;;;26.50;96.70;;;;;;5023563;28;20037;-71
2023/07/05 07:49:45;;;;;;;9.57;3.88;;;26.30;96.70;;;;;;5012112;28;20096;-70
2023/07/05 07:52:19;;;;;;;8.10;4.53;;;26.30;96.70;;;;;;5024121;28;20057;-70
2023/07/05 07:54:47;;;;;;;6.97;4.00;;;26.60;96.70;;;;;;5022804;28;20041;-70
2023/07/05 07:57:24;;;;;;;5.80;4.00;;;26.70;96.70;;;;;;5023039;28;20049;-70
2023/07/05 07:59:54;;;;;;;7.00;4.45;;;26.90;96.70;;;;;;5019004;28;20087;-70
2023/07/05 08:02:22;;;;;;;7.05;4.10;;;27.00;96.70;;;;;;5014922;28;20045;-70
2023/07/05 08:04:50;;;;;;;17.30;5.13;;;27.10;96.70;;;;;;5001179;28;20058;-70
2023/07/05 08:07:19;;;;;;;9.05;3.80;;;26.90;96.70;;;;;;5001639;28;20139;-70
2023/07/05 08:09:50;;;;;;;9.55;4.75;;;26.80;96.70;;;;;;5003358;28;20455;-70
2023/07/05 08:12:18;;;;;;;11.73;4.53;;;26.70;96.70;;;;;;5003220;28;20322;-70
2023/07/05 08:14:46;;;;;;;12.70;5.13;;;26.80;96.70;;;;;;5002709;28;20117;-70
2023/07/05 08:17:16;;;;;;;8.52;4.28;;;26.90;96.70;;;;;;4985438;28;20088;-70
2023/07/05 08:19:45;;;;;;;6.93;3.95;;;27.00;96.70;;;;;;5001046;28;20088;-70
2023/07/05 08:22:18;;;;;;;5.85;3.55;;;27.10;96.70;;;;;;5014723;28;20046;-70
2023/07/05 08:28:53;;;;;;;5.80;3.35;;;27.30;96.70;;;;;;4997648;28;20554;-70
2023/07/05 08:31:22;;;;;;;8.73;4.03;;;27.30;96.70;;;;;;4999994;28;20042;-70
2023/07/05 08:33:51;;;;;;;7.55;3.80;;;27.40;96.70;;;;;;5007339;28;20049;-70
2023/07/05 08:36:31;;;;;;;6.75;3.72;;;27.20;96.70;;;;;;5006658;28;20516;-69
2023/07/05 08:39:03;;;;;;;4.75;3.30;;;27.20;96.70;;;;;;5007164;28;20049;-70
2023/07/05 08:41:43;;;;;;;5.65;3.35;;;27.30;96.70;;;;;;4983743;28;20508;-70
2023/07/05 08:44:18;;;;;;;8.57;4.13;;;27.40;96.70;;;;;;5002220;28;20199;-70
2023/07/05 08:46:49;;;;;;;7.03;3.83;;;27.50;96.70;;;;;;5006900;28;20096;-71
2023/07/05 08:49:23;;;;;;;6.82;3.72;;;27.40;96.70;;;;;;5003437;28;20069;-70
2023/07/05 08:51:53;;;;;;;4.82;3.33;;;27.40;96.70;;;;;;5005928;28;20069;-70
2023/07/05 08:54:22;;;;;;;5.60;2.80;;;27.50;96.70;;;;;;5005663;28;20061;-70
2023/07/05 08:56:53;;;;;;;5.18;3.30;;;27.70;96.70;;;;;;4990984;28;20162;-70
2023/07/05 08:59:27;;;;;;;5.68;3.15;;;27.60;96.70;;;;;;5007105;28;20041;-70
2023/07/05 09:01:59;;;;;;;6.60;3.13;;;27.70;96.70;;;;;;5005380;28;20511;-70
2023/07/05 09:04:33;;;;;;;4.45;3.17;;;27.60;96.70;;;;;;5005855;28;20048;-70
2023/07/05 09:07:10;;;;;;;4.57;3.22;;;27.80;96.70;;;;;;5005196;28;20500;-70
2023/07/05 09:09:49;;;;;;;;;;;27.70;96.70;;;;;;5003557;28;20116;-70
2023/07/05 09:12:24;;;;;;;6.95;3.35;;;27.90;96.70;;;;;;5024723;28;20407;-70
2023/07/05 09:15:06;;;;;;;6.18;2.80;;;27.90;96.70;;;;;;5026030;28;20789;-70
2023/07/05 09:17:49;;;;;;;4.18;2.58;;;27.80;96.70;;;;;;5008560;28;20053;-70
2023/07/05 09:20:48;;;;;;;6.13;3.30;;;27.90;96.70;;;;;;5025636;28;20056;-70
2023/07/05 09:23:24;;;;;;;5.90;3.20;;;27.80;96.70;;;;;;5018376;28;20102;-70
2023/07/05 09:25:59;;;;;;;6.05;3.00;;;27.80;96.70;;;;;;5023455;28;20049;-70
2023/07/05 09:28:33;;;;;;;6.70;3.30;;;27.90;96.70;;;;;;5025753;28;20041;-70
2023/07/05 09:31:01;;;;;;;6.47;3.33;;;28.00;96.70;;;;;;5026003;28;20045;-70
2023/07/05 09:33:33;;;;;;;7.22;3.28;;;28.10;96.70;;;;;;5024344;28;20051;-70
2023/07/05 09:36:10;;;;;;;8.88;3.40;;;27.90;96.70;;;;;;5007762;28;20140;-70
2023/07/05 09:38:43;;;;;;;6.53;3.13;;;27.80;96.70;;;;;;5020446;28;20436;-69
2023/07/05 09:41:17;;;;;;;6.80;3.28;;;27.90;96.70;;;;;;4997991;28;20050;-70
2023/07/05 09:43:45;;;;;;;9.43;4.05;;;28.10;96.70;;;;;;5011485;28;20049;-69
2023/07/05 09:46:20;;;;;;;4.35;2.85;;;28.20;96.70;;;;;;5025700;28;20403;-70
2023/07/05 09:48:49;;;;;;;6.30;3.38;;;28.40;96.70;;;;;;5022839;28;20073;-69
2023/07/05 09:51:19;;;;;;;5.28;2.95;;;28.40;96.70;;;;;;5021240;28;20049;-70
2023/07/05 09:53:51;;;;;;;11.77;2.50;;;28.20;96.70;;;;;;5025193;28;20377;-70
2023/07/05 09:56:27;;;;;;;5.20;2.10;;;28.10;96.70;;;;;;5025791;28;20499;-70
2023/07/05 09:59:20;;;;;;;4.28;2.13;;;28.10;96.70;;;;;;5025696;28;20379;-70
2023/07/05 10:01:53;;;;;;;3.85;2.03;;;28.30;96.70;;;;;;4999062;28;20092;-70
2023/07/05 10:04:26;;;;;;;5.35;2.17;;;28.00;96.70;;;;;;5016971;28;20064;-69
2023/07/05 10:07:02;;;;;;;7.53;2.58;;;28.00;96.70;;;;;;5017101;28;20052;-70
2023/07/05 10:09:31;;;;;;;;;;;28.10;96.70;;;;;;5007013;28;20099;-70
2023/07/05 10:12:31;;;;;;;4.32;2.42;;;28.20;96.70;;;;;;5011194;28;19939;-70
2023/07/05 10:15:00;;;;;;;6.45;2.45;;;28.40;96.70;;;;;;5007472;28;20063;-70
2023/07/05 10:17:41;;;;;;;5.07;2.03;;;28.40;96.70;;;;;;5024426;28;20048;-70
2023/07/05 10:20:18;;;;;;;3.28;1.90;;;28.60;96.70;;;;;;5002309;28;20380;-71
2023/07/05 10:22:56;;;;;;;4.30;2.10;;;28.60;96.70;;;;;;5007484;28;20100;-71
2023/07/05 10:25:29;;;;;;;6.55;2.33;;;28.60;96.70;;;;;;5002378;28;20605;-71
2023/07/05 10:27:59;;;;;;;6.50;2.40;;;28.70;96.70;;;;;;5025119;28;20704;-72
2023/07/05 10:30:33;;;;;;;5.88;2.35;;;28.80;96.70;;;;;;5021868;28;20053;-71
2023/07/05 10:33:20;;;;;;;6.28;2.50;;;29.10;96.70;;;;;;5007060;28;20046;-71
2023/07/05 10:35:58;;;;;;;5.28;2.70;;;29.00;96.70;;;;;;4998759;28;20063;-71
2023/07/05 10:38:29;;;;;;;4.93;2.67;;;28.80;96.70;;;;;;5019622;28;20045;-71
2023/07/05 10:41:01;;;;;;;6.32;3.05;;;28.50;96.70;;;;;;5006424;28;20050;-72
2023/07/05 10:43:32;;;;;;;5.13;2.40;;;28.50;96.70;;;;;;5006410;28;20045;-70
2023/07/05 10:46:02;;;;;;;6.28;2.60;;;28.50;96.70;;;;;;5003424;28;20395;-70
2023/07/05 10:48:38;;;;;;;4.63;2.20;;;28.60;96.70;;;;;;5000083;28;20391;-71
2023/07/05 10:51:15;;;;;;;5.38;2.42;;;28.50;96.70;;;;;;4982859;28;20045;-70
2023/07/05 10:53:50;;;;;;;5.25;2.65;;;28.70;96.70;;;;;;5021801;28;20046;-70
2023/07/05 10:56:22;;;;;;;5.57;2.55;;;29.00;96.70;;;;;;4992507;28;20052;-70
2023/07/05 11:01:54;;;;;;;6.75;2.83;;;28.90;96.70;;;;;;4873781;29;20056;-70
2023/07/05 11:04:28;;;;;;;5.75;2.22;;;29.20;96.70;;;;;;4881885;29;20052;-70
2023/07/05 11:07:06;;;;;;;6.47;2.50;;;29.40;96.70;;;;;;4905765;29;20155;-70
2023/07/05 11:09:36;;;;;;;7.40;2.38;;;29.50;96.70;;;;;;4888492;29;20755;-70
2023/07/05 11:12:15;;;;;;;5.18;2.70;;;29.50;96.70;;;;;;4902067;29;20080;-69
2023/07/05 11:14:44;;;;;;;9.10;3.17;;;29.80;96.70;;;;;;4882476;29;20052;-70
2023/07/05 11:17:21;;;;;;;6.63;2.30;;;30.00;96.70;;;;;;4876014;29;20079;-72
2023/07/05 11:19:50;;;;;;;5.88;2.60;;;30.00;96.70;;;;;;4897044;29;20045;-72
2023/07/05 11:22:37;;;;;;;5.43;2.63;;;30.00;96.70;;;;;;4896841;29;20103;-73
2023/07/05 11:25:11;;;;;;;4.85;2.28;;;30.00;96.70;;;;;;4900759;29;20068;-72
2023/07/05 11:27:57;;;;;;;5.85;2.35;;;30.10;96.70;;;;;;4892003;29;20048;-72
2023/07/05 11:30:45;;;;;;;6.15;2.67;;;29.70;96.70;;;;;;4898520;29;20059;-71
2023/07/05 11:33:16;;;;;;;6.35;2.50;;;29.40;96.70;;;;;;4878905;29;20127;-72
2023/07/05 11:35:46;;;;;;;4.75;2.38;;;29.40;96.70;;;;;;4876230;29;20048;-71
2023/07/05 11:38:55;;;;;;;5.32;2.30;;;29.60;96.70;;;;;;4883942;29;20048;-72
2023/07/05 11:41:34;;;;;;;5.38;2.55;;;29.70;96.70;;;;;;4869871;29;20060;-72
2023/07/05 11:44:04;;;;;;;6.72;2.50;;;29.70;96.70;;;;;;4895308;29;20044;-71
2023/07/05 11:46:41;;;;;;;5.25;2.65;;;30.00;96.70;;;;;;4882786;29;20051;-71
2023/07/05 11:49:28;;;;;;;4.82;2.25;;;30.10;96.70;;;;;;4898404;29;20458;-71
2023/07/05 11:52:00;;;;;;;4.57;2.42;;;30.00;96.70;;;;;;4897043;29;20040;-71
2023/07/05 11:54:37;;;;;;;5.97;2.40;;;29.70;96.70;;;;;;4880813;29;20059;-70
2023/07/05 11:57:10;;;;;;;5.50;2.50;;;29.30;96.70;;;;;;4905492;29;20090;-71
2023/07/05 11:59:44;;;;;;;5.47;2.72;;;29.60;96.70;;;;;;4899747;29;20123;-70
2023/07/05 12:02:39;;;;;;;5.57;2.28;;;30.00;96.70;;;;;;4897557;29;20056;-70
2023/07/05 12:05:11;;;;;;;4.47;2.10;;;29.70;96.70;;;;;;4880524;29;20443;-70
2023/07/05 12:07:42;;;;;;;4.75;2.33;;;29.90;96.70;;;;;;4881757;29;20490;-70
2023/07/05 12:10:18;;;;;;;4.50;3.00;;;30.30;96.70;;;;;;4895979;29;20056;-70
2023/07/05 12:12:48;;;;;;;3.90;2.20;;;30.40;96.70;;;;;;4893184;29;20051;-70
2023/07/05 12:15:16;;;;;;;2.83;2.60;;;30.00;96.70;;;;;;4904110;29;20052;-69
2023/07/05 12:17:45;;;;;;;4.38;2.63;;;29.80;96.70;;;;;;4906083;29;20044;-70
2023/07/05 12:20:28;;;;;;;4.00;2.45;;;29.60;96.70;;;;;;4885521;29;20566;-71
2023/07/05 12:22:57;;;;;;;4.68;2.10;;;29.70;96.70;;;;;;4888262;29;20106;-70
2023/07/05 12:25:26;;;;;;;3.38;2.45;;;29.70;96.70;;;;;;4886826;29;20044;-71
2023/07/05 12:27:56;;;;;;;4.75;2.47;;;29.70;96.70;;;;;;5091097;23;20047;-72
2023/07/05 12:30:25;;;;;;;4.68;2.50;;;29.50;96.70;;;;;;4905549;29;20210;-72
2023/07/05 12:32:56;;;;;;;7.32;2.50;;;29.60;96.70;;;;;;4906416;29;20070;-71
2023/07/05 12:35:26;;;;;;;4.70;2.70;;;29.60;96.70;;;;;;4907152;29;20048;-72
2023/07/05 12:37:56;;;;;;;3.75;2.70;;;29.30;96.70;;;;;;4907505;29;20044;-72
2023/07/05 12:40:27;;;;;;;3.95;2.20;;;29.50;96.70;;;;;;4907966;29;20514;-72
2023/07/05 12:42:59;;;;;;;5.30;2.65;;;29.70;96.70;;;;;;4915609;29;20108;-72
2023/07/05 12:45:30;;;;;;;6.70;2.63;;;29.90;96.70;;;;;;4906989;29;20044;-71
2023/07/05 12:48:11;;;;;;;5.20;2.63;;;29.90;96.70;;;;;;4910108;29;20040;-75
2023/07/05 12:50:41;;;;;;;4.68;2.75;;;30.20;96.70;;;;;;4917749;29;20163;-73
2023/07/05 12:53:13;;;;;;;4.60;2.28;;;30.10;96.70;;;;;;4912091;29;20056;-73
2023/07/05 12:55:52;;;;;;;4.70;2.47;;;30.20;96.70;;;;;;4905406;29;20056;-71
2023/07/05 12:58:25;;;;;;;4.10;2.50;;;30.20;96.70;;;;;;4905732;29;20048;-70
2023/07/05 13:00:59;;;;;;;5.72;2.88;;;30.20;96.70;;;;;;4901905;29;20637;-70
2023/07/05 13:03:29;;;;;;;4.55;2.30;;;30.40;96.70;;;;;;4915088;29;20061;-70
2023/07/05 13:05:58;;;;;;;4.13;2.20;;;30.50;96.70;;;;;;4921997;29;20058;-71
2023/07/05 13:08:31;;;;;;;4.85;2.67;;;30.40;96.70;;;;;;4913147;29;20683;-70
2023/07/05 13:10:59;;;;;;;3.90;2.22;;;30.60;96.70;;;;;;4906642;29;20066;-70
2023/07/05 13:13:32;;;;;;;6.15;2.65;;;30.70;96.70;;;;;;4915482;29;20048;-69
2023/07/05 13:16:23;;;;;;;6.10;2.50;;;30.90;96.70;;;;;;4926504;29;20048;-70
2023/07/05 13:19:01;;;;;;;4.05;2.60;;;31.10;96.70;;;;;;4923443;29;20044;-70
2023/07/05 13:21:43;;;;;;;3.80;2.60;;;31.10;96.70;;;;;;4919382;29;20078;-69
2023/07/05 13:24:35;;;;;;;3.13;2.20;;;31.20;96.70;;;;;;4912047;29;20052;-69
2023/07/05 13:27:14;;;;;;;4.95;2.47;;;31.30;96.70;;;;;;4906340;29;20048;-70
2023/07/05 13:29:43;;;;;;;5.07;2.60;;;31.40;96.70;;;;;;4892071;29;20065;-70
2023/07/05 13:32:23;;;;;;;4.03;2.55;;;31.60;96.70;;;;;;4891402;29;20198;-69
2023/07/05 13:34:51;;;;;;;4.18;2.30;;;30.80;96.70;;;;;;4882129;29;20603;-70
2023/07/05 13:37:24;;;;;;;4.03;2.42;;;31.20;96.70;;;;;;4895105;29;20054;-70
2023/07/05 13:39:52;;;;;;;9.65;2.60;;;31.50;96.70;;;;;;4907808;29;20058;-70
2023/07/05 13:42:20;;;;;;;5.65;2.50;;;31.60;96.70;;;;;;4891515;29;20048;-69
2023/07/05 13:44:50;;;;;;;5.72;2.42;;;31.70;96.70;;;;;;4908016;29;20082;-70
2023/07/05 13:47:17;;;;;;;6.78;2.72;;;32.00;96.70;;;;;;4892286;29;20099;-70
2023/07/05 13:49:45;;;;;;;4.85;2.35;;;31.80;96.70;;;;;;4901431;29;20055;-70
2023/07/05 13:52:16;;;;;;;7.15;3.10;;;32.10;96.70;;;;;;4902098;29;20054;-70
2023/07/05 13:54:47;;;;;;;4.53;2.78;;;32.00;96.70;;;;;;4889718;29;20060;-69
2023/07/05 13:57:16;;;;;;;3.63;2.58;;;32.40;96.70;;;;;;4898895;29;20044;-70
2023/07/05 13:59:45;;;;;;;7.90;3.13;;;32.70;96.70;;;;;;4907050;29;20044;-70
2023/07/05 14:02:30;;;;;;;4.38;2.42;;;32.70;96.70;;;;;;4907648;29;20044;-70
2023/07/05 14:04:59;;;;;;;4.45;2.42;;;32.70;96.70;;;;;;4885361;29;20068;-70
2023/07/05 14:07:27;;;;;;;5.40;2.33;;;32.50;96.70;;;;;;4899111;29;20044;-69
2023/07/05 14:09:55;;;;;;;4.45;2.50;;;32.80;96.70;;;;;;4890342;29;20053;-70
2023/07/05 14:12:22;;;;;;;3.75;2.50;;;33.00;96.70;;;;;;4890004;29;20054;-70
2023/07/05 14:14:51;;;;;;;4.30;2.63;;;32.70;96.70;;;;;;4891035;29;20059;-70
2023/07/05 14:17:21;;;;;;;4.45;2.65;;;33.20;96.70;;;;;;4890701;29;20049;-70
2023/07/05 14:19:51;;;;;;;6.55;2.80;;;33.20;96.70;;;;;;4890364;29;20044;-70
2023/07/05 14:22:21;;;;;;;3.10;2.20;;;33.40;96.70;;;;;;4901840;29;20167;-70
2023/07/05 14:24:50;;;;;;;3.88;2.42;;;33.40;96.70;;;;;;4907034;29;20055;-70
2023/07/05 14:27:20;;;;;;;8.30;2.80;;;33.70;96.70;;;;;;4904977;29;20100;-70
2023/07/05 14:29:49;;;;;;;5.82;2.88;;;33.90;96.70;;;;;;4888707;29;20063;-70
2023/07/05 14:32:17;;;;;;;4.18;2.53;;;33.90;96.70;;;;;;4894854;29;20048;-70
2023/07/05 14:34:45;;;;;;;5.03;2.97;;;34.10;96.70;;;;;;4888929;29;20495;-70
2023/07/05 14:37:15;;;;;;;6.03;2.53;;;34.10;96.70;;;;;;4886206;29;20068;-70
2023/07/05 14:39:43;;;;;;;6.50;2.67;;;34.60;96.70;;;;;;4907597;29;20139;-70
2023/07/05 14:42:14;;;;;;;5.93;2.72;;;34.90;96.70;;;;;;4905008;29;20045;-69
2023/07/05 14:44:42;;;;;;;3.55;2.33;;;34.70;96.70;;;;;;4897958;29;20503;-70
2023/07/05 14:47:10;;;;;;;4.25;2.20;;;34.10;96.70;;;;;;4889832;29;20571;-70
2023/07/05 14:49:40;;;;;;;4.25;2.70;;;33.60;96.70;;;;;;4889887;29;20056;-70
2023/07/05 14:52:11;;;;;;;3.70;2.60;;;33.40;96.70;;;;;;4888715;29;20052;-69
2023/07/05 14:54:41;;;;;;;6.88;2.85;;;33.60;96.70;;;;;;4890043;29;20086;-70
2023/07/05 14:57:10;;;;;;;4.40;2.47;;;33.10;96.70;;;;;;4888714;29;20051;-69
2023/07/05 14:59:38;;;;;;;3.25;2.08;;;33.00;96.70;;;;;;4888536;29;20060;-70
2023/07/05 15:02:14;;;;;;;6.45;2.85;;;33.20;96.70;;;;;;4889819;29;20056;-70
2023/07/05 15:04:42;;;;;;;5.05;2.63;;;33.70;96.70;;;;;;4889278;29;20052;-70
2023/07/05 15:07:16;;;;;;;4.35;2.58;;;33.60;96.70;;;;;;4892938;29;20067;-70
2023/07/05 15:09:47;;;;;;;3.95;2.80;;;34.10;96.70;;;;;;4903306;29;20048;-70
2023/07/05 15:12:15;;;;;;;3.83;2.10;;;33.70;96.70;;;;;;4901286;29;20059;-70
2023/07/05 15:14:43;;;;;;;4.68;2.38;;;33.20;96.70;;;;;;4905797;29;20067;-70
2023/07/05 15:17:12;;;;;;;4.63;2.58;;;33.00;96.70;;;;;;4904285;29;20048;-70
2023/07/05 15:19:39;;;;;;;5.18;2.78;;;32.80;96.70;;;;;;4888769;29;20064;-70
2023/07/05 15:22:07;;;;;;;4.60;2.53;;;33.10;96.70;;;;;;4892122;29;20044;-70
2023/07/05 15:24:35;;;;;;;5.00;2.67;;;33.20;96.70;;;;;;4889049;29;20049;-70
2023/07/05 15:27:05;;;;;;;3.50;2.47;;;33.50;96.70;;;;;;4885463;29;20630;-70
2023/07/05 15:29:33;;;;;;;3.80;2.42;;;33.60;96.70;;;;;;4919813;29;20077;-70
2023/07/05 15:32:01;;;;;;;5.10;2.45;;;34.10;96.70;;;;;;4926853;29;20048;-70
2023/07/05 15:34:29;;;;;;;4.65;2.25;;;34.10;96.70;;;;;;4920718;29;20047;-70
2023/07/05 15:36:57;;;;;;;3.97;2.42;;;34.00;96.70;;;;;;4909224;29;20071;-70
2023/07/05 15:39:25;;;;;;;5.03;2.80;;;34.50;96.70;;;;;;4925016;29;20141;-70
2023/07/05 15:42:17;;;;;;;3.92;2.17;;;34.90;96.70;;;;;;4945046;29;20039;-70
2023/07/05 15:44:46;;;;;;;8.00;2.63;;;35.10;96.70;;;;;;4851250;29;20057;-70
2023/07/05 15:47:15;;;;;;;4.28;2.15;;;34.70;96.70;;;;;;4857370;29;20065;-70
2023/07/05 15:49:43;;;;;;;2.80;1.92;;;35.10;96.70;;;;;;4867201;29;20060;-70
2023/07/05 15:52:11;;;;;;;3.92;2.40;;;35.60;96.70;;;;;;4851153;29;20106;-70
2023/07/05 15:54:39;;;;;;;4.35;2.10;;;36.00;96.70;;;;;;4859964;29;20080;-70
2023/07/05 15:57:06;;;;;;;2.85;2.20;;;35.90;96.70;;;;;;4867200;29;20536;-70
2023/07/05 15:59:36;;;;;;;3.20;2.30;;;36.20;96.70;;;;;;4866721;29;20092;-70
2023/07/05 16:02:09;;;;;;;5.30;2.65;;;36.60;96.70;;;;;;4851864;29;20590;-70
2023/07/05 16:04:38;;;;;;;5.95;2.38;;;36.60;96.70;;;;;;4851521;29;20057;-70
2023/07/05 16:07:07;;;;;;;3.95;2.10;;;36.70;96.70;;;;;;4866759;29;20058;-70
2023/07/05 16:09:34;;;;;;;3.60;2.50;;;36.60;96.70;;;;;;4866696;29;20079;-70
2023/07/05 16:12:03;;;;;;;4.45;2.50;;;36.60;96.70;;;;;;4867081;29;20411;-70
2023/07/05 16:14:31;;;;;;;3.65;2.55;;;36.10;96.70;;;;;;4866648;29;20080;-70
2023/07/05 16:17:00;;;;;;;4.38;2.63;;;36.00;96.70;;;;;;4866788;29;20523;-70